Time;durP1;ratioP1;P1;durP2;ratioP2;P2;SDS_P1;SDS_P2;PMS_P1;PMS_P2;Temp;Humidity;BMP_temperature;BMP_pressure;BME280_temperature;BME280_humidity;BME280_pressure;Samples;Min_cycle;Max_cycle;Signal;HPM_P1;HPM_P2
2023/03/22 00:04:12;;;;;;;;;;;;;;;8.80;100.00;95500.81;10399296;28;1999;-75
2023/03/22 00:09:15;;;;;;;;;;;;;;;8.76;100.00;95492.47;10404618;28;1937;-75
2023/03/22 00:14:27;;;;;;;;;;;;;;;8.73;100.00;95494.91;10404468;28;1966;-74
2023/03/22 00:19:32;;;;;;;;;;;;;;;8.71;100.00;95492.47;10404843;28;2112;-74
2023/03/22 00:24:36;;;;;;;;;;;;;;;8.88;100.00;95478.81;10407798;28;2039;-74
2023/03/22 00:29:38;;;;;;;;;;;;;;;8.98;100.00;95481.50;10397021;28;2005;-74
2023/03/22 00:34:41;;;;;;;;;;;;;;;9.11;100.00;95474.75;10393569;28;1998;-77
2023/03/22 00:39:43;;;;;;;;;;;;;;;9.23;100.00;95461.06;10396237;28;1993;-75
2023/03/22 00:44:47;;;;;;;;;;;;;;;9.31;100.00;95447.09;10395836;28;1982;-75
2023/03/22 00:49:49;;;;;;;;;;;;;;;9.37;100.00;95457.53;10395630;28;1963;-74
2023/03/22 00:54:52;;;;;;;;;;;;;;;9.47;100.00;95438.69;10393125;28;2093;-75
2023/03/22 00:59:57;;;;;;;;;;;;;;;9.49;100.00;95446.50;10392197;28;1969;-76
2023/03/22 01:04:59;;;;;;;;;;;;;;;9.55;100.00;95447.28;10396930;28;1985;-75
2023/03/22 01:10:02;;;;;;;;;;;;;;;9.49;100.00;95446.50;10397824;28;1980;-76
2023/03/22 01:15:05;;;;;;;;;;;;;;;9.50;100.00;95456.16;10398984;28;2075;-75
2023/03/22 01:20:08;;;;;;;;;;;;;;;9.44;100.00;95458.03;10390513;28;1978;-75
2023/03/22 01:25:12;;;;;;;;;;;;;;;9.43;100.00;95447.59;10391154;28;1996;-75
2023/03/22 01:30:24;;;;;;;;;;;;;;;9.36;100.00;95444.41;10389615;28;1962;-74
2023/03/22 01:35:27;;;;;;;;;;;;;;;9.33;100.00;95428.84;10392759;28;3023;-74
2023/03/22 01:40:30;;;;;;;;;;;;;;;9.23;100.00;95435.06;10392884;28;2063;-74
2023/03/22 01:45:32;;;;;;;;;;;;;;;9.16;100.00;95419.25;10395652;28;1954;-76
2023/03/22 01:50:36;;;;;;;;;;;;;;;9.12;100.00;95428.09;10403635;28;1727;-74
2023/03/22 01:55:40;;;;;;;;;;;;;;;9.06;100.00;95421.16;10430884;28;2027;-75
2023/03/22 02:00:43;;;;;;;;;;;;;;;8.96;100.00;95424.63;10402168;28;1918;-76
2023/03/22 02:05:45;;;;;;;;;;;;;;;8.79;100.00;95408.88;10395137;28;2048;-74
2023/03/22 02:10:48;;;;;;;;;;;;;;;8.63;100.00;95415.31;10396554;28;1970;-74
2023/03/22 02:15:50;;;;;;;;;;;;;;;8.47;100.00;95435.97;10396625;28;2111;-74
2023/03/22 02:20:54;;;;;;;;;;;;;;;8.35;100.00;95422.00;10402104;28;1957;-75
2023/03/22 02:25:56;;;;;;;;;;;;;;;8.38;100.00;95414.25;10394260;28;1982;-75
2023/03/22 02:30:59;;;;;;;;;;;;;;;8.24;100.00;95412.34;10394604;28;1989;-78
2023/03/22 02:36:02;;;;;;;;;;;;;;;8.12;100.00;95405.38;10385394;28;1973;-74
2023/03/22 02:41:06;;;;;;;;;;;;;;;7.92;100.00;95409.91;10395197;28;2012;-74
2023/03/22 02:46:09;;;;;;;;;;;;;;;7.74;100.00;95414.69;10397109;28;2051;-75
2023/03/22 02:51:13;;;;;;;;;;;;;;;7.62;100.00;95418.66;10387523;28;1966;-75
2023/03/22 02:56:18;;;;;;;;;;;;;;;7.51;100.00;95426.69;10387799;28;1970;-75
2023/03/22 03:01:21;;;;;;;;;;;;;;;7.44;100.00;95427.97;10401853;28;2078;-74
2023/03/22 03:06:24;;;;;;;;;;;;;;;7.44;100.00;95431.44;10407116;28;1951;-74
2023/03/22 03:11:27;;;;;;;;;;;;;;;7.46;100.00;95440.03;10400921;28;1943;-74
2023/03/22 03:16:33;;;;;;;;;;;;;;;7.48;100.00;95437.88;10397014;28;2123;-76
2023/03/22 03:21:35;;;;;;;;;;;;;;;7.44;100.00;95436.78;10401122;28;1934;-76
2023/03/22 03:26:38;;;;;;;;;;;;;;;7.40;100.00;95451.78;10400611;28;1967;-74
2023/03/22 03:31:42;;;;;;;;;;;;;;;7.38;100.00;95440.53;10396992;28;2062;-74
2023/03/22 03:36:44;;;;;;;;;;;;;;;7.34;100.00;95435.97;10400905;28;2032;-76
2023/03/22 03:41:47;;;;;;;;;;;;;;;7.33;100.00;95437.84;10394976;28;1981;-76
2023/03/22 03:46:49;;;;;;;;;;;;;;;7.27;100.00;95433.53;10393233;28;2038;-76
2023/03/22 03:51:53;;;;;;;;;;;;;;;7.17;100.00;95441.50;10395830;28;2033;-74
2023/03/22 03:56:55;;;;;;;;;;;;;;;7.08;100.00;95433.19;10398541;28;1968;-75
2023/03/22 04:01:58;;;;;;;;;;;;;;;7.00;100.00;95431.00;10394641;28;1986;-75
2023/03/22 04:07:00;;;;;;;;;;;;;;;6.94;100.00;95424.03;10396555;28;2056;-75
2023/03/22 04:12:03;;;;;;;;;;;;;;;6.96;100.00;95425.34;10396884;28;1990;-76
2023/03/22 04:17:06;;;;;;;;;;;;;;;6.90;100.00;95426.38;10389556;28;1997;-76
2023/03/22 04:22:13;;;;;;;;;;;;;;;6.90;100.00;95434.41;10395353;28;2147;-75
2023/03/22 04:27:15;;;;;;;;;;;;;;;6.80;100.00;95439.69;10396953;28;2023;-75
2023/03/22 04:32:21;;;;;;;;;;;;;;;6.73;100.00;95431.88;10396230;28;1949;-75
2023/03/22 04:37:25;;;;;;;;;;;;;;;6.74;100.00;95427.34;10399128;28;2101;-76
2023/03/22 04:42:28;;;;;;;;;;;;;;;6.83;100.00;95430.34;10398045;28;1992;-75
2023/03/22 04:47:31;;;;;;;;;;;;;;;6.91;100.00;95421.84;10395400;28;2340;-75
2023/03/22 04:52:34;;;;;;;;;;;;;;;6.97;100.00;95428.81;10398815;28;2016;-75
2023/03/22 04:57:36;;;;;;;;;;;;;;;7.00;100.00;95426.47;10406681;28;1962;-76
2023/03/22 05:02:39;;;;;;;;;;;;;;;6.91;100.00;95425.31;10406666;28;2068;-78
2023/03/22 05:07:42;;;;;;;;;;;;;;;6.91;100.00;95430.66;10403716;28;2014;-75
2023/03/22 05:12:45;;;;;;;;;;;;;;;6.92;100.00;95428.78;10399442;28;1977;-75
2023/03/22 05:17:48;;;;;;;;;;;;;;;6.96;100.00;95430.69;10405659;28;2130;-77
2023/03/22 05:22:55;;;;;;;;;;;;;;;6.94;100.00;95424.03;10405972;28;1930;-75
2023/03/22 05:28:00;;;;;;;;;;;;;;;7.05;100.00;95428.34;10391908;28;1961;-76
2023/03/22 05:33:03;;;;;;;;;;;;;;;7.11;100.00;95432.63;10389011;28;2133;-76
2023/03/22 05:38:05;;;;;;;;;;;;;;;7.23;100.00;95429.75;10398783;28;1980;-78
2023/03/22 05:43:08;;;;;;;;;;;;;;;7.43;100.00;95424.50;10390128;28;1951;-77
2023/03/22 05:48:11;;;;;;;;;;;;;;;7.64;100.00;95427.25;10396779;28;1947;-77
2023/03/22 05:53:14;;;;;;;;;;;;;;;7.82;100.00;95432.09;10389305;28;1974;-77
2023/03/22 05:58:17;;;;;;;;;;;;;;;7.91;100.00;95432.41;10388506;28;1967;-77
2023/03/22 06:03:21;;;;;;;;;;;;;;;8.02;100.00;95428.69;10399782;28;2020;-79
2023/03/22 06:08:24;;;;;;;;;;;;;;;8.25;100.00;95430.81;10398785;28;1986;-76
2023/03/22 06:13:27;;;;;;;;;;;;;;;8.50;100.00;95423.91;10391969;28;2024;-75
2023/03/22 06:18:30;;;;;;;;;;;;;;;8.75;100.00;95418.53;10387970;28;1993;-76
2023/03/22 06:23:33;;;;;;;;;;;;;;;8.91;100.00;95424.69;10393168;28;2021;-76
2023/03/22 06:28:36;;;;;;;;;;;;;;;9.17;100.00;95423.53;10402428;28;2050;-76
2023/03/22 06:33:38;;;;;;;;;;;;;;;9.48;100.00;95421.53;10400695;28;2005;-72
2023/03/22 06:38:42;;;;;;;;;;;;;;;9.68;100.00;95426.00;10391623;28;2005;-72
2023/03/22 06:43:45;;;;;;;;;;;;;;;9.97;100.00;95430.69;10386664;28;2258;-71
2023/03/22 06:48:47;;;;;;;;;;;;;;;10.26;100.00;95426.22;10396076;28;2093;-72
2023/03/22 06:53:50;;;;;;;;;;;;;;;10.58;100.00;95426.78;10391439;28;1994;-71
2023/03/22 06:58:53;;;;;;;;;;;;;;;10.77;100.00;95428.50;10392892;28;1979;-72
2023/03/22 07:03:55;;;;;;;;;;;;;;;10.97;100.00;95429.41;10391631;28;1989;-71
2023/03/22 07:08:59;;;;;;;;;;;;;;;11.11;100.00;95430.31;10394437;28;2135;-73
2023/03/22 07:14:01;;;;;;;;;;;;;;;11.36;100.00;95431.94;10393717;28;2002;-73
2023/03/22 07:19:03;;;;;;;;;;;;;;;11.61;100.00;95428.94;10390870;28;2107;-73
2023/03/22 07:24:07;;;;;;;;;;;;;;;11.61;100.00;95438.91;10387848;28;2095;-73
2023/03/22 07:29:11;;;;;;;;;;;;;;;11.91;100.00;95432.38;10427657;28;2052;-73
2023/03/22 07:34:15;;;;;;;;;;;;;;;12.02;100.00;95433.81;10392090;28;2149;-73
2023/03/22 07:39:17;;;;;;;;;;;;;;;11.99;100.00;95433.63;10395367;28;1990;-74
2023/03/22 07:44:20;;;;;;;;;;;;;;;12.11;100.00;95432.09;10398469;28;1975;-74
2023/03/22 07:49:23;;;;;;;;;;;;;;;12.19;100.00;95427.94;10397730;28;2055;-72
2023/03/22 07:54:26;;;;;;;;;;;;;;;12.37;100.00;95429.81;10399548;28;2101;-73
2023/03/22 07:59:35;;;;;;;;;;;;;;;12.47;100.00;95433.44;10400565;28;1981;-74
2023/03/22 08:04:41;;;;;;;;;;;;;;;12.56;100.00;95437.88;10405526;28;1961;-72
2023/03/22 08:09:44;;;;;;;;;;;;;;;12.68;100.00;95426.66;10398563;28;1962;-73
2023/03/22 08:14:49;;;;;;;;;;;;;;;12.94;100.00;95430.50;10392009;28;2039;-72
2023/03/22 08:19:53;;;;;;;;;;;;;;;13.05;100.00;95424.94;10390869;28;2057;-75
2023/03/22 08:24:56;;;;;;;;;;;;;;;13.41;100.00;95427.78;10393496;28;2019;-73
2023/03/22 08:29:59;;;;;;;;;;;;;;;13.59;100.00;95421.50;10394441;28;2143;-73
2023/03/22 08:35:02;;;;;;;;;;;;;;;13.75;100.00;95425.50;10405450;28;2209;-74
2023/03/22 08:40:06;;;;;;;;;;;;;;;14.15;100.00;95422.22;10394794;28;1964;-73
2023/03/22 08:45:09;;;;;;;;;;;;;;;14.24;100.00;95428.47;10388366;28;1971;-76
2023/03/22 08:50:14;;;;;;;;;;;;;;;14.38;98.13;95418.44;10396139;28;2039;-73
2023/03/22 08:55:16;;;;;;;;;;;;;;;14.34;97.46;95414.75;10396980;28;2450;-73
2023/03/22 09:00:29;;;;;;;;;;;;;;;14.46;96.85;95417.75;10396267;28;2002;-73
2023/03/22 09:05:49;;;;;;;;;;;;;;;14.89;93.30;95406.41;10399361;28;2012;-74
2023/03/22 09:10:57;;;;;;;;;;;;;;;14.83;95.38;95399.53;10393690;28;1942;-75
2023/03/22 09:16:08;;;;;;;;;;;;;;;15.22;90.71;95400.69;10394624;28;2022;-74
2023/03/22 09:21:21;;;;;;;;;;;;;;;15.20;87.92;95400.19;10399494;28;1972;-74
2023/03/22 09:26:24;;;;;;;;;;;;;;;15.09;82.81;95392.34;10390085;28;1979;-74
2023/03/22 09:31:26;;;;;;;;;;;;;;;15.38;80.39;95385.63;10396444;28;1951;-72
2023/03/22 09:36:31;;;;;;;;;;;;;;;15.38;81.27;95381.00;10390233;28;2156;-73
2023/03/22 09:41:33;;;;;;;;;;;;;;;15.62;78.51;95377.91;10391162;28;2044;-72
2023/03/22 09:46:36;;;;;;;;;;;;;;;15.82;77.33;95376.53;10390350;28;1999;-72
2023/03/22 09:51:39;;;;;;;;;;;;;;;15.79;75.19;95370.94;10396366;28;1986;-74
2023/03/22 09:56:43;;;;;;;;;;;;;;;15.87;76.13;95365.53;10395417;28;2064;-73
2023/03/22 10:01:45;;;;;;;;;;;;;;;15.95;73.91;95364.75;10397687;28;1926;-73
2023/03/22 10:06:50;;;;;;;;;;;;;;;16.11;74.65;95345.31;10399615;28;1975;-74
2023/03/22 10:11:53;;;;;;;;;;;;;;;16.20;73.87;95351.53;10394604;28;1977;-72
2023/03/22 10:16:55;;;;;;;;;;;;;;;16.26;71.51;95346.72;10427321;28;1995;-75
2023/03/22 10:21:57;;;;;;;;;;;;;;;16.12;71.31;95347.69;10397532;28;2024;-73
2023/03/22 10:27:00;;;;;;;;;;;;;;;16.00;70.61;95338.59;10397426;28;1993;-75
2023/03/22 10:32:02;;;;;;;;;;;;;;;16.31;70.01;95339.25;10398649;28;2026;-74
2023/03/22 10:37:05;;;;;;;;;;;;;;;16.62;68.51;95324.69;10396357;28;1934;-74
2023/03/22 10:42:14;;;;;;;;;;;;;;;16.77;67.11;95324.19;10396427;28;1955;-74
2023/03/22 10:47:17;;;;;;;;;;;;;;;16.81;66.73;95316.19;10394133;28;1982;-73
2023/03/22 10:52:19;;;;;;;;;;;;;;;16.84;63.95;95318.25;10393552;28;1892;-74
2023/03/22 10:57:22;;;;;;;;;;;;;;;16.98;63.57;95313.41;10385837;28;1969;-73
2023/03/22 11:02:26;;;;;;;;;;;;;;;16.94;62.57;95318.72;10389904;28;2028;-75
2023/03/22 11:07:29;;;;;;;;;;;;;;;17.02;58.36;95314.38;10391789;28;2009;-75
2023/03/22 11:12:32;;;;;;;;;;;;;;;16.96;58.10;95310.22;10392341;28;1974;-74
2023/03/22 11:17:36;;;;;;;;;;;;;;;16.93;57.88;95314.41;10391717;28;2057;-73
2023/03/22 11:22:38;;;;;;;;;;;;;;;16.89;59.75;95312.66;10386108;28;2045;-72
2023/03/22 11:27:42;;;;;;;;;;;;;;;16.89;59.93;95310.75;10398770;28;2043;-73
2023/03/22 11:32:44;;;;;;;;;;;;;;;17.08;58.99;95306.84;10405639;28;1923;-74
2023/03/22 11:37:47;;;;;;;;;;;;;;;17.06;59.43;95299.03;10399428;28;2091;-75
2023/03/22 11:42:50;;;;;;;;;;;;;;;16.97;59.17;95295.53;10396661;28;2061;-75
2023/03/22 11:47:52;;;;;;;;;;;;;;;16.95;59.88;95278.78;10389741;28;1987;-74
2023/03/22 11:52:56;;;;;;;;;;;;;;;17.06;58.92;95282.72;10404157;28;2001;-73
2023/03/22 11:57:59;;;;;;;;;;;;;;;17.02;58.89;95276.34;10403918;28;2013;-74
2023/03/22 12:03:01;;;;;;;;;;;;;;;16.95;59.79;95273.34;10396660;28;2218;-74
2023/03/22 12:08:06;;;;;;;;;;;;;;;17.14;60.41;95260.16;10399769;28;2148;-75
2023/03/22 12:13:08;;;;;;;;;;;;;;;17.31;58.21;95250.34;10405007;28;1930;-75
2023/03/22 12:18:11;;;;;;;;;;;;;;;17.25;58.47;95247.81;10397785;28;1963;-73
2023/03/22 12:23:15;;;;;;;;;;;;;;;17.28;59.04;95236.25;10399498;28;2104;-76
2023/03/22 12:28:18;;;;;;;;;;;;;;;17.31;58.27;95228.59;10411386;28;1939;-73
2023/03/22 12:33:21;;;;;;;;;;;;;;;17.40;57.02;95234.75;10400856;28;1989;-73
2023/03/22 12:38:26;;;;;;;;;;;;;;;17.41;56.51;95223.56;10401450;28;1907;-75
2023/03/22 12:43:29;;;;;;;;;;;;;;;17.48;57.29;95207.53;10396565;28;2041;-74
2023/03/22 12:48:32;;;;;;;;;;;;;;;17.52;56.61;95197.59;10396743;28;2067;-75
2023/03/22 12:53:41;;;;;;;;;;;;;;;17.55;55.94;95194.19;10392883;28;2055;-73
2023/03/22 12:58:45;;;;;;;;;;;;;;;17.65;54.86;95195.72;10394094;28;2079;-74
2023/03/22 13:03:50;;;;;;;;;;;;;;;17.58;54.86;95187.31;10398265;28;1983;-73
2023/03/22 13:08:54;;;;;;;;;;;;;;;17.61;55.31;95177.69;10400028;28;2012;-73
2023/03/22 13:13:57;;;;;;;;;;;;;;;17.66;54.06;95163.91;10391709;28;2004;-74
2023/03/22 13:18:59;;;;;;;;;;;;;;;17.81;54.74;95176.91;10401899;28;2076;-75
2023/03/22 13:24:03;;;;;;;;;;;;;;;17.91;54.68;95171.06;10398562;28;2072;-74
2023/03/22 13:29:06;;;;;;;;;;;;;;;18.04;51.85;95180.06;10393475;28;2077;-74
2023/03/22 13:34:10;;;;;;;;;;;;;;;17.83;51.42;95170.03;10390127;28;1950;-74
2023/03/22 13:39:12;;;;;;;;;;;;;;;17.96;49.14;95159.19;10395056;28;2083;-74
2023/03/22 13:44:15;;;;;;;;;;;;;;;17.94;48.45;95169.59;10387740;28;2030;-75
2023/03/22 13:49:19;;;;;;;;;;;;;;;17.84;49.26;95165.38;10395427;28;2212;-74
2023/03/22 13:54:23;;;;;;;;;;;;;;;17.97;48.23;95164.28;10406006;28;1556;-73
2023/03/22 13:59:26;;;;;;;;;;;;;;;18.11;47.42;95153.09;10401830;28;1499;-72
2023/03/22 14:04:29;;;;;;;;;;;;;;;18.10;46.53;95141.44;10398240;28;2009;-72
2023/03/22 14:09:32;;;;;;;;;;;;;;;17.99;46.69;95144.91;10395260;28;1997;-74
2023/03/22 14:14:35;;;;;;;;;;;;;;;18.01;47.54;95135.31;10389029;28;2113;-75
2023/03/22 14:19:39;;;;;;;;;;;;;;;17.91;46.29;95132.22;10399827;28;2179;-74
2023/03/22 14:24:42;;;;;;;;;;;;;;;17.98;44.99;95124.28;10396311;28;2010;-74
2023/03/22 14:29:44;;;;;;;;;;;;;;;18.07;43.96;95125.00;10389823;28;2048;-77
2023/03/22 14:34:46;;;;;;;;;;;;;;;18.14;45.10;95116.31;10392645;28;2036;-74
2023/03/22 14:39:49;;;;;;;;;;;;;;;18.23;46.87;95116.97;10391147;28;1998;-75
2023/03/22 14:44:51;;;;;;;;;;;;;;;18.04;46.65;95103.91;10398377;28;1986;-73
2023/03/22 14:49:52;;;;;;;;;;;;;;;18.16;45.23;95106.66;10393987;28;2082;-72
2023/03/22 14:54:58;;;;;;;;;;;;;;;18.05;45.49;95105.50;10396669;28;1992;-74
2023/03/22 15:00:00;;;;;;;;;;;;;;;18.14;45.90;95103.50;10405932;28;2115;-73
2023/03/22 15:05:01;;;;;;;;;;;;;;;18.26;44.96;95100.78;10401596;28;2069;-71
2023/03/22 15:10:03;;;;;;;;;;;;;;;18.26;44.84;95095.34;10404648;28;2160;-71
2023/03/22 15:15:05;;;;;;;;;;;;;;;18.32;44.46;95091.28;10402010;28;1965;-74
2023/03/22 15:20:07;;;;;;;;;;;;;;;18.44;42.22;95081.50;10404990;28;1970;-73
2023/03/22 15:25:09;;;;;;;;;;;;;;;18.37;42.76;95091.03;10402979;28;2091;-73
2023/03/22 15:30:10;;;;;;;;;;;;;;;18.06;42.29;95079.88;10400702;28;2136;-74
2023/03/22 15:35:12;;;;;;;;;;;;;;;18.01;42.74;95093.72;10402724;28;2052;-72
2023/03/22 15:40:14;;;;;;;;;;;;;;;17.83;42.55;95088.47;10400321;28;1980;-74
2023/03/22 15:45:17;;;;;;;;;;;;;;;17.74;42.08;95090.47;10401436;28;2017;-73
2023/03/22 15:50:19;;;;;;;;;;;;;;;17.65;42.61;95094.38;10396707;28;1922;-73
2023/03/22 15:55:21;;;;;;;;;;;;;;;17.67;42.62;95095.63;10392823;28;2224;-73
2023/03/22 16:00:23;;;;;;;;;;;;;;;17.62;41.87;95098.53;10390003;28;2109;-73
2023/03/22 16:05:24;;;;;;;;;;;;;;;17.47;42.35;95101.91;10396000;28;2004;-78
2023/03/22 16:10:26;;;;;;;;;;;;;;;17.47;42.78;95102.69;10397071;28;2103;-73
2023/03/22 16:15:32;;;;;;;;;;;;;;;17.35;42.45;95116.22;10397764;28;1987;-74
2023/03/22 16:20:33;;;;;;;;;;;;;;;17.27;42.13;95117.09;10395230;28;2064;-75
2023/03/22 16:25:35;;;;;;;;;;;;;;;17.16;41.83;95121.31;10397909;28;2064;-73
2023/03/22 16:30:37;;;;;;;;;;;;;;;17.13;42.91;95122.00;10395987;28;2016;-73
2023/03/22 16:35:39;;;;;;;;;;;;;;;17.00;44.90;95127.34;10391783;28;2021;-72
2023/03/22 16:40:41;;;;;;;;;;;;;;;16.79;45.40;95126.50;10401497;28;2152;-74
2023/03/22 16:45:43;;;;;;;;;;;;;;;16.66;46.66;95128.31;10390614;28;2052;-74
2023/03/22 16:50:45;;;;;;;;;;;;;;;16.54;47.53;95130.13;10387889;28;2136;-75
2023/03/22 16:55:47;;;;;;;;;;;;;;;16.21;48.58;95134.25;10391394;28;1971;-73
2023/03/22 17:00:48;;;;;;;;;;;;;;;16.05;49.37;95141.34;10424520;28;2075;-72
2023/03/22 17:05:51;;;;;;;;;;;;;;;15.91;49.13;95144.25;10396040;28;2079;-72
2023/03/22 17:10:53;;;;;;;;;;;;;;;15.62;50.42;95136.78;10401172;28;2084;-73
2023/03/22 17:15:55;;;;;;;;;;;;;;;15.42;50.92;95142.84;10392078;28;1973;-72
2023/03/22 17:20:56;;;;;;;;;;;;;;;15.16;51.83;95152.88;10394229;28;2213;-71
2023/03/22 17:25:58;;;;;;;;;;;;;;;14.64;53.56;95144.66;10404720;28;1962;-72
2023/03/22 17:31:01;;;;;;;;;;;;;;;14.42;53.87;95151.72;10404105;28;1534;-72
2023/03/22 17:36:04;;;;;;;;;;;;;;;14.22;54.33;95149.56;10398229;28;1797;-72
2023/03/22 17:41:11;;;;;;;;;;;;;;;14.00;54.74;95156.63;10556922;27;1503;-72
2023/03/22 17:46:13;;;;;;;;;;;;;;;13.82;55.70;95154.94;10516340;28;1623;-75
2023/03/22 17:51:15;;;;;;;;;;;;;;;13.74;55.48;95158.34;10526794;28;1706;-72
2023/03/22 17:56:17;;;;;;;;;;;;;;;13.47;56.18;95164.69;10493321;28;1906;-72
2023/03/22 18:01:22;;;;;;;;;;;;;;;13.32;57.03;95165.84;10513403;28;1511;-72
2023/03/22 18:06:31;;;;;;;;;;;;;;;13.15;58.01;95169.16;10507075;28;1645;-72
2023/03/22 18:11:32;;;;;;;;;;;;;;;13.00;59.22;95174.91;10511945;28;1447;-74
2023/03/22 18:16:35;;;;;;;;;;;;;;;12.95;60.12;95175.00;10521482;28;1906;-75
2023/03/22 18:21:36;;;;;;;;;;;;;;;12.80;62.13;95176.16;10512699;28;1538;-77
2023/03/22 18:26:38;;;;;;;;;;;;;;;12.67;63.88;95179.66;10496199;28;1910;-78
2023/03/22 18:31:39;;;;;;;;;;;;;;;12.58;65.23;95178.75;10512395;28;1574;-73
2023/03/22 18:36:41;;;;;;;;;;;;;;;12.47;66.46;95185.44;10542069;28;1882;-74
2023/03/22 18:41:45;;;;;;;;;;;;;;;12.56;67.39;95183.66;10557457;28;1633;-74
2023/03/22 18:46:50;;;;;;;;;;;;;;;12.39;68.23;95185.03;10551515;28;1451;-73
2023/03/22 18:51:53;;;;;;;;;;;;;;;12.37;69.47;95179.16;10521752;28;1884;-73
2023/03/22 18:56:54;;;;;;;;;;;;;;;12.27;70.37;95176.63;10490242;28;2156;-73
2023/03/22 19:01:57;;;;;;;;;;;;;;;12.14;72.22;95185.50;10503019;28;2035;-74
2023/03/22 19:06:59;;;;;;;;;;;;;;;12.49;73.55;95181.34;10511657;28;2012;-74
2023/03/22 19:12:02;;;;;;;;;;;;;;;12.19;74.58;95180.03;10500575;28;1963;-73
2023/03/22 19:17:05;;;;;;;;;;;;;;;12.12;75.76;95187.72;10489840;28;2028;-77
2023/03/22 19:22:06;;;;;;;;;;;;;;;12.13;76.97;95192.00;10514649;28;2196;-73
2023/03/22 19:27:08;;;;;;;;;;;;;;;11.97;79.30;95182.63;10491131;28;2139;-74
2023/03/22 19:32:09;;;;;;;;;;;;;;;11.88;80.89;95188.66;10510196;28;1484;-74
2023/03/22 19:37:18;;;;;;;;;;;;;;;11.80;82.32;95189.31;10520547;28;1902;-74
2023/03/22 19:42:19;;;;;;;;;;;;;;;11.70;83.25;95183.28;10517591;28;1529;-74
2023/03/22 19:47:21;;;;;;;;;;;;;;;11.56;84.93;95183.25;10521070;28;1520;-74
2023/03/22 19:52:22;;;;;;;;;;;;;;;11.51;86.23;95194.09;10529007;28;1463;-74
2023/03/22 19:57:34;;;;;;;;;;;;;;;11.38;87.50;95191.03;10511378;28;1922;-74
2023/03/22 20:02:35;;;;;;;;;;;;;;;11.31;89.02;95185.22;10510064;28;1538;-75
2023/03/22 20:07:37;;;;;;;;;;;;;;;11.40;89.18;95189.97;10514193;28;1887;-74
2023/03/22 20:12:38;;;;;;;;;;;;;;;11.25;90.30;95189.09;10500998;28;1531;-73
2023/03/22 20:17:40;;;;;;;;;;;;;;;11.11;92.82;95193.59;10494090;28;1957;-74
2023/03/22 20:22:41;;;;;;;;;;;;;;;11.13;93.13;95191.41;10520168;28;1528;-74
2023/03/22 20:27:45;;;;;;;;;;;;;;;11.09;93.09;95190.41;10509912;28;1443;-75
2023/03/22 20:32:46;;;;;;;;;;;;;;;11.11;94.42;95188.22;10513001;28;1455;-74
2023/03/22 20:37:47;;;;;;;;;;;;;;;10.94;95.47;95196.00;10521681;28;1961;-73
2023/03/22 20:42:49;;;;;;;;;;;;;;;10.74;97.78;95197.84;10531718;28;1472;-74
2023/03/22 20:47:55;;;;;;;;;;;;;;;10.63;99.39;95198.28;10531832;28;1479;-74
2023/03/22 20:52:57;;;;;;;;;;;;;;;10.56;100.00;95198.66;10514822;28;1812;-74
2023/03/22 20:57:58;;;;;;;;;;;;;;;10.70;100.00;95190.69;10514133;28;1878;-75
2023/03/22 21:03:00;;;;;;;;;;;;;;;10.63;100.00;95201.78;10529740;28;1631;-76
2023/03/22 21:08:02;;;;;;;;;;;;;;;10.60;100.00;95191.59;10494268;28;1464;-73
2023/03/22 21:13:03;;;;;;;;;;;;;;;10.54;100.00;95190.06;10521240;28;1522;-73
2023/03/22 21:18:05;;;;;;;;;;;;;;;10.40;100.00;95195.31;10513796;28;2225;-73
2023/03/22 21:23:06;;;;;;;;;;;;;;;10.29;100.00;95200.00;10520693;28;1605;-74
2023/03/22 21:28:24;;;;;;;;;;;;;;;10.29;100.00;95200.00;10490174;28;1967;-74
2023/03/22 21:33:26;;;;;;;;;;;;;;;10.19;100.00;95200.09;10491526;28;1999;-74
2023/03/22 21:38:33;;;;;;;;;;;;;;;10.24;100.00;95205.44;10508521;28;1984;-74
2023/03/22 21:43:34;;;;;;;;;;;;;;;10.20;100.00;95196.31;10509391;28;1978;-77
2023/03/22 21:48:40;;;;;;;;;;;;;;;10.16;100.00;95200.66;10481089;28;2052;-71
2023/03/22 21:53:42;;;;;;;;;;;;;;;10.04;100.00;95181.44;10469048;28;2152;-71
2023/03/22 21:58:44;;;;;;;;;;;;;;;10.33;100.00;95192.19;10499760;28;2064;-72
2023/03/22 22:03:55;;;;;;;;;;;;;;;10.25;100.00;95192.81;10483056;28;1982;-72
2023/03/22 22:09:07;;;;;;;;;;;;;;;10.31;100.00;95183.63;10505265;28;1990;-71
2023/03/22 22:14:08;;;;;;;;;;;;;;;10.27;100.00;95183.38;10509980;28;2113;-78
2023/03/22 22:19:10;;;;;;;;;;;;;;;10.34;100.00;95179.53;10500961;28;2519;-78
2023/03/22 22:24:11;;;;;;;;;;;;;;;10.37;100.00;95184.34;10491994;28;2095;-74
2023/03/22 22:29:13;;;;;;;;;;;;;;;10.35;100.00;95176.56;10494183;28;2016;-74
2023/03/22 22:34:15;;;;;;;;;;;;;;;10.27;100.00;95178.00;10494568;28;2045;-75
2023/03/22 22:39:17;;;;;;;;;;;;;;;10.24;100.00;95180.44;10477902;28;2046;-74
2023/03/22 22:44:18;;;;;;;;;;;;;;;10.24;100.00;95180.44;10511078;28;1951;-74
2023/03/22 22:49:30;;;;;;;;;;;;;;;10.22;100.00;95167.28;10506738;28;1982;-74
2023/03/22 22:54:32;;;;;;;;;;;;;;;10.24;100.00;95178.59;10487646;28;1943;-73
2023/03/22 22:59:34;;;;;;;;;;;;;;;10.24;100.00;95175.06;10515069;28;1968;-75
2023/03/22 23:04:35;;;;;;;;;;;;;;;10.15;100.00;95180.25;10509467;28;1970;-73
2023/03/22 23:09:46;;;;;;;;;;;;;;;10.17;100.00;95171.91;10507938;28;1980;-74
2023/03/22 23:14:48;;;;;;;;;;;;;;;10.18;100.00;95165.44;10491612;28;2018;-76
2023/03/22 23:19:56;;;;;;;;;;;;;;;10.07;100.00;95169.34;10528742;28;1967;-74
2023/03/22 23:25:00;;;;;;;;;;;;;;;10.13;100.00;95169.00;10509307;28;1971;-73
2023/03/22 23:30:01;;;;;;;;;;;;;;;10.03;100.00;95169.09;10509262;28;1959;-75
2023/03/22 23:35:03;;;;;;;;;;;;;;;9.99;100.00;95176.13;10502278;28;2135;-75
2023/03/22 23:40:09;;;;;;;;;;;;;;;9.83;100.00;95177.34;10511313;28;1932;-75
2023/03/22 23:45:10;;;;;;;;;;;;;;;9.71;100.00;95175.84;10518936;28;2098;-73
2023/03/22 23:50:22;;;;;;;;;;;;;;;9.69;100.00;95180.69;10496232;28;2047;-73
2023/03/22 23:55:24;;;;;;;;;;;;;;;9.59;100.00;95180.78;10489950;28;2077;-75
